sensor_id;sensor_type;location;lat;lon;timestamp;temperature;humidity
19898;DHT22;10111;50.814;4.572;2023-07-31T00:00:48;18.20;99.90
19898;DHT22;10111;50.814;4.572;2023-07-31T00:03:14;18.20;99.90
19898;DHT22;10111;50.814;4.572;2023-07-31T00:05:40;18.30;99.90
19898;DHT22;10111;50.814;4.572;2023-07-31T00:08:05;18.30;99.90
19898;DHT22;10111;50.814;4.572;2023-07-31T00:10:31;18.30;99.90
19898;DHT22;10111;50.814;4.572;2023-07-31T00:12:57;18.30;99.90
19898;DHT22;10111;50.814;4.572;2023-07-31T00:15:22;18.20;99.90
19898;DHT22;10111;50.814;4.572;2023-07-31T00:17:48;18.20;99.90
19898;DHT22;10111;50.814;4.572;2023-07-31T00:20:14;18.30;99.90
19898;DHT22;10111;50.814;4.572;2023-07-31T00:22:39;18.30;99.90
19898;DHT22;10111;50.814;4.572;2023-07-31T00:25:05;18.30;99.90
19898;DHT22;10111;50.814;4.572;2023-07-31T00:27:32;18.40;99.90
19898;DHT22;10111;50.814;4.572;2023-07-31T00:29:58;18.50;99.90
19898;DHT22;10111;50.814;4.572;2023-07-31T00:32:23;18.50;99.90
19898;DHT22;10111;50.814;4.572;2023-07-31T00:34:49;18.60;99.90
19898;DHT22;10111;50.814;4.572;2023-07-31T00:37:14;18.50;99.90
19898;DHT22;10111;50.814;4.572;2023-07-31T00:39:41;18.50;99.90
19898;DHT22;10111;50.814;4.572;2023-07-31T00:42:07;18.60;99.90
19898;DHT22;10111;50.814;4.572;2023-07-31T00:44:33;18.50;99.90
19898;DHT22;10111;50.814;4.572;2023-07-31T00:46:59;18.40;99.90
19898;DHT22;10111;50.814;4.572;2023-07-31T00:49:26;18.40;99.90
19898;DHT22;10111;50.814;4.572;2023-07-31T00:51:52;18.50;99.90
19898;DHT22;10111;50.814;4.572;2023-07-31T00:54:18;18.40;99.90
19898;DHT22;10111;50.814;4.572;2023-07-31T00:56:45;18.40;99.90
19898;DHT22;10111;50.814;4.572;2023-07-31T00:59:12;18.40;99.90
19898;DHT22;10111;50.814;4.572;2023-07-31T01:01:38;18.50;99.90
19898;DHT22;10111;50.814;4.572;2023-07-31T01:04:04;18.50;99.90
19898;DHT22;10111;50.814;4.572;2023-07-31T01:11:52;18.20;99.90
19898;DHT22;10111;50.814;4.572;2023-07-31T01:14:18;18.20;99.90
19898;DHT22;10111;50.814;4.572;2023-07-31T01:16:43;18.20;99.90
19898;DHT22;10111;50.814;4.572;2023-07-31T01:19:10;18.10;99.90
19898;DHT22;10111;50.814;4.572;2023-07-31T01:24:21;18.20;99.90
19898;DHT22;10111;50.814;4.572;2023-07-31T01:27:02;18.30;99.90
19898;DHT22;10111;50.814;4.572;2023-07-31T01:32:06;18.10;99.90
19898;DHT22;10111;50.814;4.572;2023-07-31T01:34:35;18.10;99.90
19898;DHT22;10111;50.814;4.572;2023-07-31T01:37:01;18.10;99.90
19898;DHT22;10111;50.814;4.572;2023-07-31T01:39:26;18.20;99.90
19898;DHT22;10111;50.814;4.572;2023-07-31T01:41:52;18.20;99.90
19898;DHT22;10111;50.814;4.572;2023-07-31T01:44:17;18.20;99.90
19898;DHT22;10111;50.814;4.572;2023-07-31T01:46:43;18.30;99.90
19898;DHT22;10111;50.814;4.572;2023-07-31T01:49:09;18.20;99.90
19898;DHT22;10111;50.814;4.572;2023-07-31T01:51:35;18.20;99.90
19898;DHT22;10111;50.814;4.572;2023-07-31T01:54:01;18.30;99.90
19898;DHT22;10111;50.814;4.572;2023-07-31T01:56:27;18.40;99.90
19898;DHT22;10111;50.814;4.572;2023-07-31T01:58:53;18.40;99.90
19898;DHT22;10111;50.814;4.572;2023-07-31T02:01:18;18.40;99.90
19898;DHT22;10111;50.814;4.572;2023-07-31T02:03:44;18.40;99.90
19898;DHT22;10111;50.814;4.572;2023-07-31T02:06:10;18.40;99.90
19898;DHT22;10111;50.814;4.572;2023-07-31T02:08:35;18.40;99.90
19898;DHT22;10111;50.814;4.572;2023-07-31T02:11:01;18.30;99.90
19898;DHT22;10111;50.814;4.572;2023-07-31T02:13:27;18.40;99.90
19898;DHT22;10111;50.814;4.572;2023-07-31T02:15:52;18.40;99.90
19898;DHT22;10111;50.814;4.572;2023-07-31T02:18:19;18.40;99.90
19898;DHT22;10111;50.814;4.572;2023-07-31T02:20:52;18.40;99.90
19898;DHT22;10111;50.814;4.572;2023-07-31T02:23:20;18.40;99.90
19898;DHT22;10111;50.814;4.572;2023-07-31T02:25:46;18.40;99.90
19898;DHT22;10111;50.814;4.572;2023-07-31T02:28:12;18.40;99.90
19898;DHT22;10111;50.814;4.572;2023-07-31T02:30:38;18.40;99.90
19898;DHT22;10111;50.814;4.572;2023-07-31T02:33:05;18.40;99.90
19898;DHT22;10111;50.814;4.572;2023-07-31T02:35:31;18.50;99.90
19898;DHT22;10111;50.814;4.572;2023-07-31T02:37:56;18.50;99.90
19898;DHT22;10111;50.814;4.572;2023-07-31T02:40:22;18.50;99.90
19898;DHT22;10111;50.814;4.572;2023-07-31T02:42:48;18.40;99.90
19898;DHT22;10111;50.814;4.572;2023-07-31T02:45:14;18.30;99.90
19898;DHT22;10111;50.814;4.572;2023-07-31T02:47:40;18.30;99.90
19898;DHT22;10111;50.814;4.572;2023-07-31T02:50:06;18.30;99.90
19898;DHT22;10111;50.814;4.572;2023-07-31T02:52:31;18.40;99.90
19898;DHT22;10111;50.814;4.572;2023-07-31T02:54:58;18.40;99.90
19898;DHT22;10111;50.814;4.572;2023-07-31T02:57:23;18.40;99.90
19898;DHT22;10111;50.814;4.572;2023-07-31T02:59:49;18.40;99.90
19898;DHT22;10111;50.814;4.572;2023-07-31T03:02:15;18.40;99.90
19898;DHT22;10111;50.814;4.572;2023-07-31T03:04:40;18.40;99.90
19898;DHT22;10111;50.814;4.572;2023-07-31T03:07:06;18.50;99.90
19898;DHT22;10111;50.814;4.572;2023-07-31T03:09:32;18.50;99.90
19898;DHT22;10111;50.814;4.572;2023-07-31T03:11:57;18.50;99.90
19898;DHT22;10111;50.814;4.572;2023-07-31T03:14:23;18.50;99.90
19898;DHT22;10111;50.814;4.572;2023-07-31T03:16:51;18.60;99.90
19898;DHT22;10111;50.814;4.572;2023-07-31T03:19:17;18.50;99.90
19898;DHT22;10111;50.814;4.572;2023-07-31T03:21:43;18.40;99.90
19898;DHT22;10111;50.814;4.572;2023-07-31T03:24:08;18.40;99.90
19898;DHT22;10111;50.814;4.572;2023-07-31T03:26:34;18.30;99.90
19898;DHT22;10111;50.814;4.572;2023-07-31T03:29:00;18.40;99.90
19898;DHT22;10111;50.814;4.572;2023-07-31T03:31:26;18.40;99.90
19898;DHT22;10111;50.814;4.572;2023-07-31T03:33:51;18.40;99.90
19898;DHT22;10111;50.814;4.572;2023-07-31T03:36:17;18.40;99.90
19898;DHT22;10111;50.814;4.572;2023-07-31T03:38:43;18.40;99.90
19898;DHT22;10111;50.814;4.572;2023-07-31T03:41:08;18.50;99.90
19898;DHT22;10111;50.814;4.572;2023-07-31T03:43:35;18.50;99.90
19898;DHT22;10111;50.814;4.572;2023-07-31T03:46:01;18.50;99.90
19898;DHT22;10111;50.814;4.572;2023-07-31T03:48:28;18.50;99.90
19898;DHT22;10111;50.814;4.572;2023-07-31T03:50:53;18.50;99.90
19898;DHT22;10111;50.814;4.572;2023-07-31T03:53:19;18.60;99.90
19898;DHT22;10111;50.814;4.572;2023-07-31T03:55:45;18.60;99.90
19898;DHT22;10111;50.814;4.572;2023-07-31T03:58:10;18.50;99.90
19898;DHT22;10111;50.814;4.572;2023-07-31T04:00:36;18.40;99.90
19898;DHT22;10111;50.814;4.572;2023-07-31T04:03:02;18.40;99.90
19898;DHT22;10111;50.814;4.572;2023-07-31T04:05:30;18.40;99.90
19898;DHT22;10111;50.814;4.572;2023-07-31T04:07:55;18.40;99.90
19898;DHT22;10111;50.814;4.572;2023-07-31T04:10:21;18.30;99.90
19898;DHT22;10111;50.814;4.572;2023-07-31T04:12:47;18.20;99.90
19898;DHT22;10111;50.814;4.572;2023-07-31T04:15:12;18.30;99.90
19898;DHT22;10111;50.814;4.572;2023-07-31T04:17:38;18.30;99.90
19898;DHT22;10111;50.814;4.572;2023-07-31T04:20:04;18.30;99.90
19898;DHT22;10111;50.814;4.572;2023-07-31T04:22:30;18.20;99.90
19898;DHT22;10111;50.814;4.572;2023-07-31T04:24:55;18.30;99.90
19898;DHT22;10111;50.814;4.572;2023-07-31T04:27:21;18.30;99.90
19898;DHT22;10111;50.814;4.572;2023-07-31T04:29:47;18.20;99.90
19898;DHT22;10111;50.814;4.572;2023-07-31T04:32:13;18.20;99.90
19898;DHT22;10111;50.814;4.572;2023-07-31T04:34:41;18.20;99.90
19898;DHT22;10111;50.814;4.572;2023-07-31T04:37:06;18.20;99.90
19898;DHT22;10111;50.814;4.572;2023-07-31T04:39:32;18.20;99.90
19898;DHT22;10111;50.814;4.572;2023-07-31T04:41:57;18.20;99.90
19898;DHT22;10111;50.814;4.572;2023-07-31T04:44:23;18.20;99.90
19898;DHT22;10111;50.814;4.572;2023-07-31T04:46:49;18.20;99.90
19898;DHT22;10111;50.814;4.572;2023-07-31T04:49:14;18.20;99.90
19898;DHT22;10111;50.814;4.572;2023-07-31T04:51:40;18.20;99.90
19898;DHT22;10111;50.814;4.572;2023-07-31T04:54:06;18.20;99.90
19898;DHT22;10111;50.814;4.572;2023-07-31T04:56:31;18.20;99.90
19898;DHT22;10111;50.814;4.572;2023-07-31T04:58:57;18.30;99.90
19898;DHT22;10111;50.814;4.572;2023-07-31T05:01:22;18.20;99.90
19898;DHT22;10111;50.814;4.572;2023-07-31T05:03:48;18.20;99.90
19898;DHT22;10111;50.814;4.572;2023-07-31T05:06:14;18.20;99.90
19898;DHT22;10111;50.814;4.572;2023-07-31T05:08:40;18.20;99.90
19898;DHT22;10111;50.814;4.572;2023-07-31T05:11:06;18.10;99.90
19898;DHT22;10111;50.814;4.572;2023-07-31T05:13:32;18.00;99.90
19898;DHT22;10111;50.814;4.572;2023-07-31T05:15:57;18.00;99.90
19898;DHT22;10111;50.814;4.572;2023-07-31T05:18:23;17.90;99.90
19898;DHT22;10111;50.814;4.572;2023-07-31T05:20:48;17.90;99.90
19898;DHT22;10111;50.814;4.572;2023-07-31T05:23:14;17.80;99.90
19898;DHT22;10111;50.814;4.572;2023-07-31T05:25:40;17.80;99.90
19898;DHT22;10111;50.814;4.572;2023-07-31T05:28:05;17.80;99.90
19898;DHT22;10111;50.814;4.572;2023-07-31T05:30:31;17.80;99.90
19898;DHT22;10111;50.814;4.572;2023-07-31T05:32:57;17.80;99.90
19898;DHT22;10111;50.814;4.572;2023-07-31T05:35:22;17.60;99.90
19898;DHT22;10111;50.814;4.572;2023-07-31T05:37:48;17.60;99.90
19898;DHT22;10111;50.814;4.572;2023-07-31T05:40:14;17.60;99.90
19898;DHT22;10111;50.814;4.572;2023-07-31T05:42:40;17.60;99.90
19898;DHT22;10111;50.814;4.572;2023-07-31T05:45:06;17.60;99.90
19898;DHT22;10111;50.814;4.572;2023-07-31T05:47:32;17.60;99.90
19898;DHT22;10111;50.814;4.572;2023-07-31T05:49:58;17.70;99.90
19898;DHT22;10111;50.814;4.572;2023-07-31T05:52:23;17.60;99.90
19898;DHT22;10111;50.814;4.572;2023-07-31T05:54:49;17.60;99.90
19898;DHT22;10111;50.814;4.572;2023-07-31T05:57:15;17.50;99.90
19898;DHT22;10111;50.814;4.572;2023-07-31T05:59:41;17.50;99.90
19898;DHT22;10111;50.814;4.572;2023-07-31T06:02:07;17.50;99.90
19898;DHT22;10111;50.814;4.572;2023-07-31T06:04:32;17.50;99.90
19898;DHT22;10111;50.814;4.572;2023-07-31T06:06:58;17.60;99.90
19898;DHT22;10111;50.814;4.572;2023-07-31T06:09:24;17.60;99.90
19898;DHT22;10111;50.814;4.572;2023-07-31T06:11:51;17.60;99.90
19898;DHT22;10111;50.814;4.572;2023-07-31T06:14:16;17.50;99.90
19898;DHT22;10111;50.814;4.572;2023-07-31T06:16:42;17.50;99.90
19898;DHT22;10111;50.814;4.572;2023-07-31T06:19:09;17.50;99.90
19898;DHT22;10111;50.814;4.572;2023-07-31T06:21:35;17.60;99.90
19898;DHT22;10111;50.814;4.572;2023-07-31T06:24:03;17.60;99.90
19898;DHT22;10111;50.814;4.572;2023-07-31T06:26:29;17.60;99.90
19898;DHT22;10111;50.814;4.572;2023-07-31T06:28:55;17.50;99.90
19898;DHT22;10111;50.814;4.572;2023-07-31T06:31:20;17.60;99.90
19898;DHT22;10111;50.814;4.572;2023-07-31T06:33:52;17.60;99.90
19898;DHT22;10111;50.814;4.572;2023-07-31T06:36:18;17.70;99.90
19898;DHT22;10111;50.814;4.572;2023-07-31T06:38:43;17.60;99.90
19898;DHT22;10111;50.814;4.572;2023-07-31T06:41:09;17.60;99.90
19898;DHT22;10111;50.814;4.572;2023-07-31T06:43:36;17.70;99.90
19898;DHT22;10111;50.814;4.572;2023-07-31T06:46:05;17.70;99.90
19898;DHT22;10111;50.814;4.572;2023-07-31T06:48:32;17.80;99.90
19898;DHT22;10111;50.814;4.572;2023-07-31T06:50:58;17.80;99.90
19898;DHT22;10111;50.814;4.572;2023-07-31T06:53:24;17.80;99.90
19898;DHT22;10111;50.814;4.572;2023-07-31T06:55:49;17.70;99.90
19898;DHT22;10111;50.814;4.572;2023-07-31T06:58:17;17.50;99.90
19898;DHT22;10111;50.814;4.572;2023-07-31T07:00:43;17.60;99.90
19898;DHT22;10111;50.814;4.572;2023-07-31T07:03:08;17.80;99.90
19898;DHT22;10111;50.814;4.572;2023-07-31T07:05:34;18.00;99.90
19898;DHT22;10111;50.814;4.572;2023-07-31T07:08:00;18.10;99.90
19898;DHT22;10111;50.814;4.572;2023-07-31T07:10:25;18.20;99.90
19898;DHT22;10111;50.814;4.572;2023-07-31T07:12:51;18.30;99.90
19898;DHT22;10111;50.814;4.572;2023-07-31T07:15:17;18.40;99.90
19898;DHT22;10111;50.814;4.572;2023-07-31T07:17:42;18.50;99.90
19898;DHT22;10111;50.814;4.572;2023-07-31T07:20:08;18.60;99.90
19898;DHT22;10111;50.814;4.572;2023-07-31T07:22:34;18.70;99.90
19898;DHT22;10111;50.814;4.572;2023-07-31T07:25:00;19.00;99.90
19898;DHT22;10111;50.814;4.572;2023-07-31T07:27:26;18.90;99.90
19898;DHT22;10111;50.814;4.572;2023-07-31T07:29:51;19.10;99.90
19898;DHT22;10111;50.814;4.572;2023-07-31T07:32:20;19.10;99.90
19898;DHT22;10111;50.814;4.572;2023-07-31T07:34:47;19.30;99.90
19898;DHT22;10111;50.814;4.572;2023-07-31T07:37:13;19.40;99.90
19898;DHT22;10111;50.814;4.572;2023-07-31T07:39:39;19.30;99.90
19898;DHT22;10111;50.814;4.572;2023-07-31T07:42:04;19.40;99.90
19898;DHT22;10111;50.814;4.572;2023-07-31T07:44:30;19.30;99.90
19898;DHT22;10111;50.814;4.572;2023-07-31T07:46:56;19.40;99.90
19898;DHT22;10111;50.814;4.572;2023-07-31T07:49:21;19.50;99.90
19898;DHT22;10111;50.814;4.572;2023-07-31T07:51:50;19.50;99.90
19898;DHT22;10111;50.814;4.572;2023-07-31T07:54:16;19.50;99.90
19898;DHT22;10111;50.814;4.572;2023-07-31T07:56:46;19.60;99.90
19898;DHT22;10111;50.814;4.572;2023-07-31T07:59:12;19.70;99.90
19898;DHT22;10111;50.814;4.572;2023-07-31T08:01:37;19.80;99.90
19898;DHT22;10111;50.814;4.572;2023-07-31T08:04:03;19.80;99.90
19898;DHT22;10111;50.814;4.572;2023-07-31T08:06:29;19.80;99.90
19898;DHT22;10111;50.814;4.572;2023-07-31T08:08:55;19.80;99.90
19898;DHT22;10111;50.814;4.572;2023-07-31T08:11:21;19.60;99.90
19898;DHT22;10111;50.814;4.572;2023-07-31T08:13:49;19.60;99.90
19898;DHT22;10111;50.814;4.572;2023-07-31T08:16:14;19.70;99.90
19898;DHT22;10111;50.814;4.572;2023-07-31T08:18:40;19.80;99.90
19898;DHT22;10111;50.814;4.572;2023-07-31T08:21:08;19.80;99.90
19898;DHT22;10111;50.814;4.572;2023-07-31T08:23:34;19.70;99.90
19898;DHT22;10111;50.814;4.572;2023-07-31T08:25:59;19.60;99.90
19898;DHT22;10111;50.814;4.572;2023-07-31T08:28:25;19.50;99.90
19898;DHT22;10111;50.814;4.572;2023-07-31T08:30:51;19.40;99.90
19898;DHT22;10111;50.814;4.572;2023-07-31T08:33:16;19.30;99.90
19898;DHT22;10111;50.814;4.572;2023-07-31T08:35:42;19.30;99.90
19898;DHT22;10111;50.814;4.572;2023-07-31T08:38:07;19.50;99.90
19898;DHT22;10111;50.814;4.572;2023-07-31T08:40:36;19.30;99.90
19898;DHT22;10111;50.814;4.572;2023-07-31T08:43:03;19.30;99.90
19898;DHT22;10111;50.814;4.572;2023-07-31T08:45:29;19.10;99.90
19898;DHT22;10111;50.814;4.572;2023-07-31T08:47:56;19.00;99.90
19898;DHT22;10111;50.814;4.572;2023-07-31T08:50:22;19.10;99.90
19898;DHT22;10111;50.814;4.572;2023-07-31T08:52:49;19.30;99.90
19898;DHT22;10111;50.814;4.572;2023-07-31T08:55:15;19.50;99.90
19898;DHT22;10111;50.814;4.572;2023-07-31T08:57:42;19.40;99.90
19898;DHT22;10111;50.814;4.572;2023-07-31T09:00:09;19.40;99.90
19898;DHT22;10111;50.814;4.572;2023-07-31T09:05:09;19.50;99.90
19898;DHT22;10111;50.814;4.572;2023-07-31T09:07:36;19.50;99.90
19898;DHT22;10111;50.814;4.572;2023-07-31T09:10:03;19.50;99.90
19898;DHT22;10111;50.814;4.572;2023-07-31T09:12:29;19.40;99.90
19898;DHT22;10111;50.814;4.572;2023-07-31T09:14:57;19.30;99.90
19898;DHT22;10111;50.814;4.572;2023-07-31T09:17:49;19.30;99.90
19898;DHT22;10111;50.814;4.572;2023-07-31T09:20:23;19.30;99.90
19898;DHT22;10111;50.814;4.572;2023-07-31T09:22:49;19.30;99.90
19898;DHT22;10111;50.814;4.572;2023-07-31T09:25:15;19.60;99.90
19898;DHT22;10111;50.814;4.572;2023-07-31T09:27:49;19.60;99.90
19898;DHT22;10111;50.814;4.572;2023-07-31T09:30:15;19.70;99.90
19898;DHT22;10111;50.814;4.572;2023-07-31T09:32:42;19.80;99.90
19898;DHT22;10111;50.814;4.572;2023-07-31T09:35:22;20.00;99.90
19898;DHT22;10111;50.814;4.572;2023-07-31T09:37:53;20.20;99.90
19898;DHT22;10111;50.814;4.572;2023-07-31T09:40:28;20.40;99.90
19898;DHT22;10111;50.814;4.572;2023-07-31T09:43:00;20.50;99.90
19898;DHT22;10111;50.814;4.572;2023-07-31T09:45:26;20.70;99.90
19898;DHT22;10111;50.814;4.572;2023-07-31T09:47:51;20.80;99.90
19898;DHT22;10111;50.814;4.572;2023-07-31T09:50:17;20.70;99.90
19898;DHT22;10111;50.814;4.572;2023-07-31T09:52:43;20.70;99.90
19898;DHT22;10111;50.814;4.572;2023-07-31T09:55:09;20.60;99.90
19898;DHT22;10111;50.814;4.572;2023-07-31T09:57:40;20.60;99.90
19898;DHT22;10111;50.814;4.572;2023-07-31T10:00:07;20.60;99.90
19898;DHT22;10111;50.814;4.572;2023-07-31T10:02:35;20.60;99.90
19898;DHT22;10111;50.814;4.572;2023-07-31T10:05:03;20.40;99.90
19898;DHT22;10111;50.814;4.572;2023-07-31T10:07:30;20.30;99.90
19898;DHT22;10111;50.814;4.572;2023-07-31T10:09:58;20.20;99.90
19898;DHT22;10111;50.814;4.572;2023-07-31T10:12:26;20.10;99.90
19898;DHT22;10111;50.814;4.572;2023-07-31T10:14:55;20.10;99.90
19898;DHT22;10111;50.814;4.572;2023-07-31T10:17:22;20.10;99.90
19898;DHT22;10111;50.814;4.572;2023-07-31T10:19:49;20.10;99.90
19898;DHT22;10111;50.814;4.572;2023-07-31T10:22:15;20.20;99.90
19898;DHT22;10111;50.814;4.572;2023-07-31T10:24:46;20.20;99.90
19898;DHT22;10111;50.814;4.572;2023-07-31T10:27:12;20.10;99.90
19898;DHT22;10111;50.814;4.572;2023-07-31T10:29:43;20.20;99.90
19898;DHT22;10111;50.814;4.572;2023-07-31T10:32:09;20.30;99.90
19898;DHT22;10111;50.814;4.572;2023-07-31T10:34:38;20.50;99.90
19898;DHT22;10111;50.814;4.572;2023-07-31T10:39:57;21.10;99.90
19898;DHT22;10111;50.814;4.572;2023-07-31T10:42:49;21.50;99.90
19898;DHT22;10111;50.814;4.572;2023-07-31T10:50:29;21.70;99.90
19898;DHT22;10111;50.814;4.572;2023-07-31T10:52:58;21.40;99.90
19898;DHT22;10111;50.814;4.572;2023-07-31T10:56:00;21.20;99.90
19898;DHT22;10111;50.814;4.572;2023-07-31T10:58:26;21.10;99.90
19898;DHT22;10111;50.814;4.572;2023-07-31T11:00:56;21.10;99.90
19898;DHT22;10111;50.814;4.572;2023-07-31T11:03:25;21.00;99.90
19898;DHT22;10111;50.814;4.572;2023-07-31T11:06:02;20.90;99.90
19898;DHT22;10111;50.814;4.572;2023-07-31T11:08:33;20.90;99.90
19898;DHT22;10111;50.814;4.572;2023-07-31T11:13:40;21.00;99.90
19898;DHT22;10111;50.814;4.572;2023-07-31T11:16:06;21.20;99.90
19898;DHT22;10111;50.814;4.572;2023-07-31T11:18:32;21.00;99.90
19898;DHT22;10111;50.814;4.572;2023-07-31T11:20:58;21.00;99.90
19898;DHT22;10111;50.814;4.572;2023-07-31T11:23:24;21.00;99.90
19898;DHT22;10111;50.814;4.572;2023-07-31T11:25:50;21.00;99.90
19898;DHT22;10111;50.814;4.572;2023-07-31T11:28:16;21.00;99.90
19898;DHT22;10111;50.814;4.572;2023-07-31T11:30:43;21.10;99.90
19898;DHT22;10111;50.814;4.572;2023-07-31T11:33:11;21.30;99.90
19898;DHT22;10111;50.814;4.572;2023-07-31T11:35:47;21.60;99.90
19898;DHT22;10111;50.814;4.572;2023-07-31T11:38:25;22.00;99.90
19898;DHT22;10111;50.814;4.572;2023-07-31T11:40:51;22.00;99.90
19898;DHT22;10111;50.814;4.572;2023-07-31T11:43:18;21.90;99.90
19898;DHT22;10111;50.814;4.572;2023-07-31T11:45:56;22.00;99.90
19898;DHT22;10111;50.814;4.572;2023-07-31T11:48:24;22.00;99.90
19898;DHT22;10111;50.814;4.572;2023-07-31T11:50:51;22.00;99.90
19898;DHT22;10111;50.814;4.572;2023-07-31T11:53:24;22.10;99.90
19898;DHT22;10111;50.814;4.572;2023-07-31T11:55:51;22.10;99.90
19898;DHT22;10111;50.814;4.572;2023-07-31T11:58:18;22.10;99.90
19898;DHT22;10111;50.814;4.572;2023-07-31T12:00:45;22.10;99.90
19898;DHT22;10111;50.814;4.572;2023-07-31T12:03:11;22.10;99.90
19898;DHT22;10111;50.814;4.572;2023-07-31T12:05:37;22.10;99.90
19898;DHT22;10111;50.814;4.572;2023-07-31T12:08:09;22.00;99.90
19898;DHT22;10111;50.814;4.572;2023-07-31T12:10:35;22.20;99.90
19898;DHT22;10111;50.814;4.572;2023-07-31T12:13:05;22.40;99.90
19898;DHT22;10111;50.814;4.572;2023-07-31T12:15:35;22.40;99.90
19898;DHT22;10111;50.814;4.572;2023-07-31T12:18:06;22.60;99.90
19898;DHT22;10111;50.814;4.572;2023-07-31T12:20:33;22.40;99.90
19898;DHT22;10111;50.814;4.572;2023-07-31T12:22:59;22.40;99.90
19898;DHT22;10111;50.814;4.572;2023-07-31T12:25:30;22.40;99.90
19898;DHT22;10111;50.814;4.572;2023-07-31T12:27:57;22.30;99.90
19898;DHT22;10111;50.814;4.572;2023-07-31T12:30:31;22.20;99.90
19898;DHT22;10111;50.814;4.572;2023-07-31T12:32:57;22.20;99.90
19898;DHT22;10111;50.814;4.572;2023-07-31T12:35:23;22.00;99.90
19898;DHT22;10111;50.814;4.572;2023-07-31T12:37:49;22.10;99.90
19898;DHT22;10111;50.814;4.572;2023-07-31T12:40:14;22.00;99.90
19898;DHT22;10111;50.814;4.572;2023-07-31T12:42:41;22.10;99.90
19898;DHT22;10111;50.814;4.572;2023-07-31T12:45:07;22.00;99.90
19898;DHT22;10111;50.814;4.572;2023-07-31T12:47:33;22.20;99.90
19898;DHT22;10111;50.814;4.572;2023-07-31T12:49:58;22.00;99.90
19898;DHT22;10111;50.814;4.572;2023-07-31T12:52:24;21.80;99.90
19898;DHT22;10111;50.814;4.572;2023-07-31T12:54:50;21.60;99.90
19898;DHT22;10111;50.814;4.572;2023-07-31T12:57:15;21.60;99.90
19898;DHT22;10111;50.814;4.572;2023-07-31T12:59:41;21.80;99.90
19898;DHT22;10111;50.814;4.572;2023-07-31T13:02:07;21.90;99.90
19898;DHT22;10111;50.814;4.572;2023-07-31T13:04:32;21.90;99.90
19898;DHT22;10111;50.814;4.572;2023-07-31T13:06:58;21.90;99.90
19898;DHT22;10111;50.814;4.572;2023-07-31T13:09:23;22.00;99.90
19898;DHT22;10111;50.814;4.572;2023-07-31T13:11:49;21.90;99.90
19898;DHT22;10111;50.814;4.572;2023-07-31T13:14:15;21.80;99.90
19898;DHT22;10111;50.814;4.572;2023-07-31T13:16:40;21.80;99.90
19898;DHT22;10111;50.814;4.572;2023-07-31T13:19:06;21.70;99.90
19898;DHT22;10111;50.814;4.572;2023-07-31T13:21:32;21.50;99.90
19898;DHT22;10111;50.814;4.572;2023-07-31T13:24:01;21.40;99.90
19898;DHT22;10111;50.814;4.572;2023-07-31T13:26:26;21.00;99.90
19898;DHT22;10111;50.814;4.572;2023-07-31T13:28:52;20.80;99.90
19898;DHT22;10111;50.814;4.572;2023-07-31T13:31:17;20.50;99.90
19898;DHT22;10111;50.814;4.572;2023-07-31T13:33:43;20.20;99.90
19898;DHT22;10111;50.814;4.572;2023-07-31T13:36:09;19.90;99.90
19898;DHT22;10111;50.814;4.572;2023-07-31T13:38:35;19.90;99.90
19898;DHT22;10111;50.814;4.572;2023-07-31T13:41:00;19.70;99.90
19898;DHT22;10111;50.814;4.572;2023-07-31T13:43:26;19.90;99.90
19898;DHT22;10111;50.814;4.572;2023-07-31T13:45:52;20.00;99.90
19898;DHT22;10111;50.814;4.572;2023-07-31T13:48:17;19.90;99.90
19898;DHT22;10111;50.814;4.572;2023-07-31T13:50:43;19.90;99.90
19898;DHT22;10111;50.814;4.572;2023-07-31T13:53:08;19.90;99.90
19898;DHT22;10111;50.814;4.572;2023-07-31T13:55:34;19.90;99.90
19898;DHT22;10111;50.814;4.572;2023-07-31T13:58:00;20.00;99.90
19898;DHT22;10111;50.814;4.572;2023-07-31T14:00:25;20.00;99.90
19898;DHT22;10111;50.814;4.572;2023-07-31T14:02:51;19.90;99.90
19898;DHT22;10111;50.814;4.572;2023-07-31T14:05:16;19.90;99.90
19898;DHT22;10111;50.814;4.572;2023-07-31T14:07:42;19.90;99.90
19898;DHT22;10111;50.814;4.572;2023-07-31T14:10:08;19.80;99.90
19898;DHT22;10111;50.814;4.572;2023-07-31T14:12:34;19.80;99.90
19898;DHT22;10111;50.814;4.572;2023-07-31T14:14:59;19.70;99.90
19898;DHT22;10111;50.814;4.572;2023-07-31T14:17:25;19.70;99.90
19898;DHT22;10111;50.814;4.572;2023-07-31T14:19:51;19.70;99.90
19898;DHT22;10111;50.814;4.572;2023-07-31T14:22:28;19.70;99.90
19898;DHT22;10111;50.814;4.572;2023-07-31T14:24:53;19.60;99.90
19898;DHT22;10111;50.814;4.572;2023-07-31T14:27:19;19.60;99.90
19898;DHT22;10111;50.814;4.572;2023-07-31T14:29:45;19.60;99.90
19898;DHT22;10111;50.814;4.572;2023-07-31T14:32:10;19.60;99.90
19898;DHT22;10111;50.814;4.572;2023-07-31T14:34:36;19.70;99.90
19898;DHT22;10111;50.814;4.572;2023-07-31T14:37:01;20.00;99.90
19898;DHT22;10111;50.814;4.572;2023-07-31T14:39:27;20.10;99.90
19898;DHT22;10111;50.814;4.572;2023-07-31T14:41:53;20.10;99.90
19898;DHT22;10111;50.814;4.572;2023-07-31T14:44:18;20.10;99.90
19898;DHT22;10111;50.814;4.572;2023-07-31T14:46:44;20.00;99.90
19898;DHT22;10111;50.814;4.572;2023-07-31T14:49:10;20.00;99.90
19898;DHT22;10111;50.814;4.572;2023-07-31T14:51:35;20.00;99.90
19898;DHT22;10111;50.814;4.572;2023-07-31T14:54:01;20.00;99.90
19898;DHT22;10111;50.814;4.572;2023-07-31T14:56:27;20.10;99.90
19898;DHT22;10111;50.814;4.572;2023-07-31T14:58:53;20.10;99.90
19898;DHT22;10111;50.814;4.572;2023-07-31T15:01:19;20.10;99.90
19898;DHT22;10111;50.814;4.572;2023-07-31T15:03:44;20.00;99.90
19898;DHT22;10111;50.814;4.572;2023-07-31T15:06:10;20.20;99.90
19898;DHT22;10111;50.814;4.572;2023-07-31T15:08:38;20.20;99.90
19898;DHT22;10111;50.814;4.572;2023-07-31T15:11:04;20.30;99.90
19898;DHT22;10111;50.814;4.572;2023-07-31T15:13:30;20.30;99.90
19898;DHT22;10111;50.814;4.572;2023-07-31T15:15:56;20.20;99.90
19898;DHT22;10111;50.814;4.572;2023-07-31T15:18:23;20.20;99.90
19898;DHT22;10111;50.814;4.572;2023-07-31T15:20:49;20.20;99.90
19898;DHT22;10111;50.814;4.572;2023-07-31T15:23:14;20.10;99.90
19898;DHT22;10111;50.814;4.572;2023-07-31T15:25:40;20.10;99.90
19898;DHT22;10111;50.814;4.572;2023-07-31T15:28:06;20.10;99.90
19898;DHT22;10111;50.814;4.572;2023-07-31T15:30:32;20.00;99.90
19898;DHT22;10111;50.814;4.572;2023-07-31T15:32:59;20.10;99.90
19898;DHT22;10111;50.814;4.572;2023-07-31T15:35:24;20.10;99.90
19898;DHT22;10111;50.814;4.572;2023-07-31T15:37:50;20.20;99.90
19898;DHT22;10111;50.814;4.572;2023-07-31T15:40:16;20.10;99.90
19898;DHT22;10111;50.814;4.572;2023-07-31T15:42:41;20.10;99.90
19898;DHT22;10111;50.814;4.572;2023-07-31T15:45:08;20.10;99.90
19898;DHT22;10111;50.814;4.572;2023-07-31T15:47:34;20.10;99.90
19898;DHT22;10111;50.814;4.572;2023-07-31T15:50:00;20.10;99.90